Current Conditions
Partly Cloudy
Conditions



Pressure
30.21 (inHG) - 1022.92 (mb)
Visibility

10.0 (km) - 6.2 (miles)
   Temperature
23  °C
Temperature
15  °C
Dewpoint
61  %
 Humidity
   Wind Speed
3  km/h
2  kts
2  mph
0.9  m/s
   Wind Direction
N
45°
E
90°
135°
S
180°
225°
W
270°
315°
 330°

North North
West
   Airport Data
EHVK
Volkel Air Base
Metar :EHVK 210925Z AUTO 33002KT 9999 FEW049 23/15 Q1023 BLU TEMPO VRB03KT
Mon 21st August 11:25 am
   Raw Metar Info
Raw METAR is the most common format in the world for the transmission of observational weather data. It is highly standardized through the International Civil Aviation Organization (ICAO), which allows it to be understood throughout most of the world.
   API Info
Data Provided by
https://www.checkwx.com/weather/EHVK

Aviation Weather providing METAR, TAF, AIRMET, SIGMET and OUTLOOK Weather Reports
   © Info
CSS/SVG/PHP scripts were developed by weather34.com for use in the weather34 template © 2015-2024

Guide Info provided by Metar-Wikipedia